Latest Weather Observations for Jandakot

IDW60801

Issued at 11:32 pm WST Sunday 19 April 2015 (issued every 30 minutes, with the page automatically refreshed every 10 minutes)

About weather observations | Map of weather stations | Latest weather observations for WA | Other Formats
Station Details ID: 009172 Name: JANDAKOT AERO Lat: -32.10 Lon: 115.88 Height: 30.0 m
Data from the previous 72 hours. | See also: Recent months at Jandakot
Date/Time
WST
Temp
°C
App
Temp
°C
Dew
Point
Rel
Hum
%
Delta-T
°C
Wind Press
QNH
hPa
Press
MSL
hPa
Rain
since 9 am
mm
Dir
 
Spd
km/h
Gust
km/h
Spd
kts
Gust
kts
19/11:30pm 20.4 16.1 7.7 44 6.5 ENE 20 28 11 15 1025.5 1025.5 0.0
19/11:00pm 19.9 16.5 7.8 45 6.2 ENE 15 20 8 11 1025.6 1025.6 0.0
19/10:30pm 20.1 16.7 7.6 44 6.4 ENE 15 24 8 13 1025.9 1025.9 0.0
19/10:00pm 19.2 16.1 7.3 46 6.0 ENE 13 17 7 9 1026.1 1026.1 0.0
19/09:30pm 17.8 14.6 6.7 48 5.5 ENE 13 19 7 10 1026.0 1026.0 0.0
19/09:00pm 15.7 12.8 6.7 55 4.4 E 11 15 6 8 1025.9 1025.9 0.0
19/08:30pm 16.4 14.3 6.8 53 4.7 ESE 7 11 4 6 1025.7 1025.7 0.0
19/08:00pm 16.9 14.5 7.2 52 4.8 E 9 11 5 6 1025.5 1025.5 0.0
19/07:30pm 18.8 15.9 6.5 44 6.1 E 11 13 6 7 1025.4 1025.4 0.0
19/07:00pm 21.5 18.0 5.3 34 8.0 E 13 13 7 7 1025.1 1025.1 0.0
19/06:30pm 20.6 17.6 6.2 39 7.2 E 11 11 6 6 1024.7 1024.6 0.0
19/06:00pm 23.4 20.2 5.2 30 9.1 ENE 11 15 6 8 1024.3 1024.2 0.0
19/05:30pm 25.1 20.9 3.8 25 10.5 ENE 15 22 8 12 1023.8 1023.7 0.0
19/05:00pm 26.8 22.4 4.6 24 11.2 ENE 17 24 9 13 1023.8 1023.7 0.0
19/04:30pm 27.5 23.2 5.3 24 11.4 ENE 17 24 9 13 1023.6 1023.5 0.0
19/04:00pm 27.7 22.7 4.4 22 11.8 ENE 20 28 11 15 1023.6 1023.5 0.0
19/03:30pm 27.8 22.9 4.9 23 11.7 NE 20 30 11 16 1023.8 1023.7 0.0
19/03:00pm 28.3 23.4 4.9 22 12.0 ENE 20 30 11 16 1023.7 1023.6 0.0
19/02:30pm 27.7 23.0 6.0 25 11.3 ENE 20 26 11 14 1023.8 1023.7 0.0
19/02:00pm 27.4 23.1 7.2 27 10.7 ENE 19 28 10 15 1024.0 1023.9 0.0
19/01:30pm 27.0 22.7 7.1 28 10.5 NE 19 24 10 13 1024.3 1024.2 0.0
19/01:00pm 26.0 21.2 7.2 30 9.9 ENE 22 32 12 17 1024.8 1024.7 0.0
19/12:30pm 25.5 21.2 7.7 32 9.5 ENE 20 28 11 15 1025.3 1025.3 0.0
19/12:00pm 24.7 19.8 8.6 36 8.6 ENE 24 33 13 18 1025.8 1025.8 0.0
19/11:30am 24.6 19.4 8.7 36 8.6 NE 26 33 14 18 1026.3 1026.3 0.0
19/11:00am 24.3 18.8 9.1 38 8.2 NE 28 41 15 22 1026.7 1026.7 0.0
19/10:30am 23.1 17.6 9.1 41 7.5 NE 28 43 15 23 1027.0 1027.0 0.0
19/10:00am 22.1 17.1 9.6 45 6.7 NE 26 35 14 19 1027.1 1027.1 0.0
19/09:30am 20.9 15.6 9.7 48 6.0 ENE 28 43 15 23 1027.1 1027.1 0.0
19/09:00am 20.1 15.6 10.0 52 5.4 ENE 24 32 13 17 1027.2 1027.2 0.0
19/08:30am 18.9 14.9 10.5 58 4.5 ENE 22 30 12 16 1027.2 1027.2 0.0
19/08:00am 17.9 13.9 10.6 62 3.9 ENE 22 32 12 17 1026.8 1026.8 0.0
19/07:30am 17.1 12.4 10.7 66 3.4 ENE 26 35 14 19 1026.3 1026.3 0.0
19/07:00am 16.2 12.3 10.7 70 2.9 ENE 22 30 12 16 1025.9 1025.9 0.0
19/06:30am 14.8 12.3 11.0 78 2.0 ENE 15 19 8 10 1025.7 1025.7 0.0
19/06:00am 14.4 12.6 10.8 79 1.9 E 11 17 6 9 1025.4 1025.4 0.0
19/05:30am 14.4 11.9 11.2 81 1.7 E 15 19 8 10 1025.1 1025.1 0.0
19/05:00am 14.6 12.5 11.0 79 1.9 E 13 15 7 8 1025.0 1025.0 0.0
19/04:30am 15.9 13.6 10.6 71 2.8 ENE 13 20 7 11 1024.6 1024.5 0.0
19/04:00am 16.6 13.6 10.6 67 3.2 ENE 17 24 9 13 1024.4 1024.3 0.0
19/03:30am 17.0 14.0 10.8 67 3.3 ENE 17 24 9 13 1024.2 1024.1 0.0
19/03:00am 17.4 13.9 10.9 65 3.5 ENE 20 32 11 17 1024.2 1024.1 0.0
19/02:30am 16.7 14.3 11.5 71 2.8 E 15 26 8 14 1024.4 1024.3 0.0
19/02:00am 15.8 14.3 11.9 77 2.1 E 11 15 6 8 1024.3 1024.2 0.0
19/01:30am 16.3 14.9 12.3 77 2.2 ESE 11 15 6 8 1024.5 1024.4 0.0
19/01:00am 17.1 14.9 12.2 73 2.7 E 15 19 8 10 1024.5 1024.4 0.0
19/12:30am 17.2 14.8 12.5 74 2.6 E 17 28 9 15 1024.2 1024.1 0.0
19/12:00am 17.5 15.0 12.2 71 2.9 ESE 17 22 9 12 1024.2 1024.1 0.0
 
Date/Time
WST
Temp
°C
App
Temp
°C
Dew
Point
Rel
Hum
%
Delta-T
°C
Wind Press
QNH
hPa
Press
MSL
hPa
Rain
since 9 am
mm
Dir
 
Spd
km/h
Gust
km/h
Spd
kts
Gust
kts
18/11:30pm 17.8 14.7 11.5 66 3.4 ESE 19 24 10 13 1024.4 1024.3 0.0
18/11:00pm 18.4 14.0 10.3 59 4.3 ESE 24 32 13 17 1024.6 1024.5 0.0
18/10:30pm 18.9 14.5 8.9 52 5.2 ESE 22 30 12 16 1024.6 1024.5 0.0
18/10:00pm 19.2 15.0 7.6 47 5.9 ESE 19 24 10 13 1024.6 1024.5 0.0
18/09:30pm 19.4 15.4 6.6 43 6.4 ESE 17 22 9 12 1024.5 1024.4 0.0
18/09:00pm 19.1 15.5 6.7 44 6.2 E 15 20 8 11 1024.3 1024.2 0.0
18/08:30pm 18.1 14.9 6.8 47 5.6 E 13 20 7 11 1024.1 1024.0 0.0
18/08:00pm 16.7 14.5 7.7 55 4.5 ESE 9 11 5 6 1023.8 1023.7 0.0
18/07:30pm 17.4 14.9 8.4 55 4.6 SE 11 11 6 6 1023.4 1023.3 0.0
18/07:00pm 19.0 16.9 8.1 49 5.6 SE 9 11 5 6 1023.1 1023.0 0.0
18/06:30pm 20.4 17.9 8.3 45 6.3 ESE 11 15 6 8 1022.8 1022.7 0.0
18/06:00pm 22.1 19.1 7.6 39 7.5 ESE 13 17 7 9 1022.5 1022.4 0.0
18/05:30pm 24.2 20.2 6.5 32 9.1 ESE 17 20 9 11 1022.2 1022.1 0.0
18/05:00pm 25.4 21.4 6.8 30 9.7 ESE 17 22 9 12 1021.9 1021.8 0.0
18/04:30pm 26.2 22.5 6.4 28 10.3 ESE 15 22 8 12 1021.9 1021.8 0.0
18/04:00pm 26.4 22.9 7.0 29 10.2 E 15 20 8 11 1021.9 1021.8 0.0
18/03:30pm 26.2 22.2 6.7 29 10.2 ESE 17 28 9 15 1022.0 1021.9 0.0
18/03:00pm 26.4 22.2 5.8 26 10.6 SE 17 26 9 14 1022.0 1021.9 0.0
18/02:30pm 26.3 22.8 7.1 29 10.1 ESE 15 24 8 13 1022.1 1022.0 0.0
18/02:00pm 26.2 23.1 7.2 30 10.0 E 13 22 7 12 1022.2 1022.1 0.0
18/01:30pm 26.2 22.5 7.8 31 9.8 E 17 24 9 13 1022.5 1022.4 0.0
18/01:00pm 25.2 21.9 8.1 33 9.1 ENE 15 28 8 15 1022.8 1022.7 0.0
18/12:30pm 25.0 21.7 8.1 34 9.0 ENE 15 24 8 13 1023.3 1023.2 0.0
18/12:00pm 24.4 21.3 8.7 36 8.4 NE 15 24 8 13 1023.8 1023.7 0.0
18/11:30am 23.7 20.3 9.2 39 7.8 ENE 17 22 9 12 1024.1 1024.0 0.0
18/11:00am 22.7 19.5 10.0 44 6.9 E 17 24 9 13 1024.2 1024.1 0.0
18/10:30am 21.8 17.9 9.5 45 6.6 ENE 20 28 11 15 1024.5 1024.4 0.0
18/10:00am 21.3 18.0 9.7 47 6.2 ENE 17 24 9 13 1024.7 1024.6 0.0
18/09:30am 20.0 16.2 9.9 52 5.4 ENE 20 28 11 15 1024.8 1024.7 0.0
18/09:00am 18.6 15.6 10.6 59 4.3 E 17 24 9 13 1024.9 1024.8 0.0
18/08:30am 17.1 13.6 10.1 63 3.7 ESE 19 28 10 15 1024.9 1024.8 0.0
18/08:00am 16.2 13.4 10.1 67 3.2 E 15 20 8 11 1024.5 1024.4 0.0
18/07:30am 14.9 11.7 9.9 72 2.6 ESE 17 24 9 13 1024.0 1023.9 0.0
18/07:00am 14.0 10.4 9.7 75 2.2 ESE 19 26 10 14 1023.7 1023.6 0.0
18/06:30am 13.6 10.3 9.7 77 2.0 E 17 26 9 14 1023.4 1023.3 0.0
18/06:00am 13.5 9.9 9.8 78 1.9 ESE 19 24 10 13 1023.3 1023.2 0.0
18/05:30am 12.0 8.7 9.4 84 1.3 ESE 17 26 9 14 1023.2 1023.1 0.0
18/05:00am 7.9 7.2 6.8 93 0.5 CALM 0 0 0 0 1022.9 1022.8 0.0
18/04:30am 9.0 6.8 7.7 91 0.6 ESE 9 11 5 6 1022.9 1022.8 0.0
18/04:00am 9.5 8.0 8.5 93 0.5 ENE 6 7 3 4 1022.7 1022.6 0.0
18/03:30am 9.9 8.5 8.7 92 0.6 SSE 6 9 3 5 1022.8 1022.7 0.0
18/03:00am 11.3 9.6 9.7 90 0.8 S 9 11 5 6 1022.8 1022.7 0.0
18/02:30am 11.2 9.1 9.8 91 0.7 S 11 13 6 7 1023.1 1023.0 0.0
18/02:00am 10.4 8.1 9.0 91 0.7 SSE 11 13 6 7 1023.0 1022.9 0.0
18/01:30am 11.6 9.2 10.0 90 0.8 S 13 15 7 8 1023.0 1022.9 0.0
18/01:00am 10.1 8.2 8.9 92 0.6 S 9 11 5 6 1022.8 1022.7 0.0
18/12:30am 9.4 7.2 7.7 89 0.8 S 9 11 5 6 1022.7 1022.6 0.0
18/12:00am 10.3 8.7 8.7 90 0.8 S 7 9 4 5 1022.8 1022.7 0.0
 
Date/Time
WST
Temp
°C
App
Temp
°C
Dew
Point
Rel
Hum
%
Delta-T
°C
Wind Press
QNH
hPa
Press
MSL
hPa
Rain
since 9 am
mm
Dir
 
Spd
km/h
Gust
km/h
Spd
kts
Gust
kts
17/11:30pm 10.5 8.9 8.9 90 0.8 S 7 7 4 4 1022.9 1022.8 0.0
17/11:00pm 12.0 10.7 10.0 87 1.0 S 7 7 4 4 1023.1 1023.0 0.0
17/10:30pm 13.4 12.0 10.9 85 1.3 S 9 11 5 6 1023.2 1023.1 0.0
17/10:00pm 13.8 12.8 10.9 83 1.5 S 7 9 4 5 1023.4 1023.3 0.0
17/09:30pm 14.5 13.5 11.1 80 1.8 S 7 9 4 5 1023.4 1023.3 0.0
17/09:00pm 15.3 14.0 11.4 77 2.1 S 9 13 5 7 1023.4 1023.3 0.0
17/08:30pm 16.1 14.1 11.5 74 2.5 S 13 17 7 9 1023.3 1023.2 0.0
17/08:00pm 16.8 14.3 11.0 68 3.1 S 15 20 8 11 1023.2 1023.1 0.0
17/07:30pm 17.3 14.6 10.5 64 3.6 S 15 20 8 11 1023.1 1023.0 0.0
17/07:00pm 17.8 15.1 10.3 61 4.0 SSW 15 22 8 12 1022.8 1022.7 0.0
17/06:30pm 18.3 15.4 9.5 56 4.6 SSW 15 20 8 11 1022.3 1022.2 0.0
17/06:00pm 18.8 16.3 9.7 55 4.8 SSW 13 20 7 11 1021.9 1021.8 0.0
17/05:30pm 19.5 16.7 11.3 59 4.5 SW 17 22 9 12 1021.8 1021.7 0.0
17/05:00pm 20.8 17.9 10.9 53 5.4 SW 17 22 9 12 1021.7 1021.6 0.0
17/04:30pm 21.8 18.6 10.0 47 6.4 WSW 17 20 9 11 1021.6 1021.5 0.0
17/04:00pm 21.8 18.0 9.7 46 6.5 SW 20 26 11 14 1021.9 1021.8 0.0
17/03:30pm 22.5 19.0 10.2 45 6.7 SW 19 24 10 13 1022.0 1021.9 0.0
17/03:00pm 22.5 18.9 10.4 46 6.6 SW 20 28 11 15 1022.0 1021.9 0.0
17/02:30pm 22.9 19.6 11.0 47 6.6 SW 19 26 10 14 1022.1 1022.0 0.0
17/02:00pm 22.7 19.1 10.7 46 6.6 W 20 28 11 15 1022.3 1022.2 0.0
17/01:30pm 22.7 19.7 10.5 46 6.7 WSW 17 22 9 12 1022.7 1022.6 0.0
17/01:00pm 23.1 20.4 10.5 45 6.9 WSW 15 20 8 11 1023.1 1023.0 0.0
17/12:30pm 23.2 21.0 10.7 45 6.9 S 13 22 7 12 1023.7 1023.6 0.0
17/12:00pm 22.7 20.7 10.0 44 6.9 W 11 17 6 9 1024.5 1024.4 0.0
17/11:30am 22.2 20.4 9.5 44 6.8 NNW 9 15 5 8 1025.1 1025.1 0.0
17/11:00am 21.3 18.6 9.0 45 6.5 NNW 13 20 7 11 1025.6 1025.6 0.0
17/10:30am 21.3 19.6 9.7 47 6.2 NNW 9 15 5 8 1026.0 1026.0 0.0
17/10:00am 20.5 18.7 9.6 49 5.8 NE 9 13 5 7 1026.2 1026.2 0.0
17/09:30am 19.2 17.3 9.1 52 5.3 NE 9 13 5 7 1026.4 1026.4 0.0
17/09:00am 18.1 16.7 8.8 54 4.8 NE 6 11 3 6 1026.5 1026.5 0.0
17/08:30am 16.7 14.5 8.0 56 4.4 NE 9 13 5 7 1026.3 1026.3 0.0
17/08:00am 13.8 13.1 8.6 71 2.6 E 2 7 1 4 1025.9 1025.9 0.0
17/07:30am 9.9 8.3 7.8 87 1.0 ENE 6 6 3 3 1025.8 1025.8 0.0
17/07:00am 7.7 5.4 5.7 87 0.9 ENE 7 9 4 5 1025.6 1025.6 0.0
17/06:30am 8.0 5.9 5.8 86 1.0 ENE 6 7 3 4 1025.7 1025.7 0.0
17/06:00am 9.5 6.5 6.2 80 1.5 E 11 13 6 7 1025.7 1025.7 0.0
17/05:30am 7.2 4.0 4.9 85 1.0 E 11 15 6 8 1025.8 1025.8 0.0
17/05:00am 7.6 4.8 5.3 85 1.0 SSE 9 9 5 5 1025.9 1025.9 0.0
17/04:30am 6.9 4.1 5.1 88 0.8 ESE 9 11 5 6 1025.8 1025.8 0.0
17/04:00am 7.2 4.7 4.9 85 1.0 SE 7 9 4 5 1025.9 1025.9 0.0
17/03:30am 7.5 5.3 5.5 87 0.9 SSE 6 7 3 4 1026.1 1026.1 0.0
17/03:00am 7.4 4.3 5.4 87 0.9 SE 11 13 6 7 1026.5 1026.5 0.0
17/02:30am 8.3 5.2 5.6 83 1.2 SSE 11 13 6 7 1026.9 1026.9 0.0
17/02:25am 8.3 5.2 5.6 83 1.2 S 11 13 6 7 1026.9 1026.9 0.0
17/02:14am 8.1 5.4 5.4 83 1.2 SSE 9 9 5 5 1027.0 1027.0 0.0
17/02:00am 8.6 6.4 5.2 79 1.5 S 6 7 3 4 1027.1 1027.1 0.0
17/01:30am 9.5 8.1 5.5 76 1.8 SE 2 7 1 4 1027.2 1027.2 0.0
17/01:00am 9.5 6.1 5.8 78 1.7 ESE 13 15 7 8 1027.1 1027.1 0.0
17/12:30am 11.0 8.3 5.8 70 2.4 ESE 9 11 5 6 1027.2 1027.2 0.0
17/12:00am 9.2 5.7 5.4 77 1.7 ESE 13 15 7 8 1027.4 1027.4 0.0

Other Formats:

Comma delimited format used in spreadsheet applications
http://www.bom.gov.au/fwo/IDW60801/IDW60801.94609.axf

JavaScript Object Notation format (JSON) in row-major order
http://www.bom.gov.au/fwo/IDW60801/IDW60801.94609.json